Gualeguaychu, Argentina
Current Conditions -  °F | °C
As of 12:00 PM on Monday 24 Nov 2014 (Local Time) from SADF Reporting Station
Light Rain Light Rain  
Wind Chill: 22°   Ceiling: 10000
Heat Index: 22°   Visibility: 6mi
Dew Point: 17°   Wind: 6mph
Humidity: 73%   Direction: 180°S
Pressure: 29.8"   Gusts: NA
Location:  33.02°S, 58.52°W
Report Text: SADF 241500Z 18005KT 9000 -RA FEW040 OVC100 22/17 Q1009
Loading
Personal Weather Stations






























Interactive Weather Map New forecast layout! Learn more

10-Day Weather Forecast

Advertisements
Track Severe Weather on mobile